createdAt,value
2018-12-15T00:01:04.047Z,0.60
2018-12-15T00:03:39.011Z,0.50
2018-12-15T00:06:07.337Z,0.50
2018-12-15T00:08:35.769Z,0.60
2018-12-15T00:11:04.123Z,0.60
2018-12-15T00:13:32.530Z,0.60
2018-12-15T00:16:01.019Z,0.60
2018-12-15T00:18:29.395Z,0.60
2018-12-15T00:20:57.769Z,0.60
2018-12-15T00:23:26.051Z,0.60
2018-12-15T00:25:54.504Z,0.60
2018-12-15T00:28:22.817Z,0.60
2018-12-15T00:30:51.073Z,0.60
2018-12-15T00:33:19.405Z,0.60
2018-12-15T00:35:47.716Z,0.60
2018-12-15T00:38:16.017Z,0.60
2018-12-15T00:40:44.325Z,0.60
2018-12-15T00:43:12.579Z,0.60
2018-12-15T00:45:41.972Z,0.60
2018-12-15T00:48:10.453Z,0.60
2018-12-15T00:50:39.179Z,0.60
2018-12-15T00:53:07.560Z,0.60
2018-12-15T00:55:41.383Z,0.60
2018-12-15T00:58:09.667Z,0.60
2018-12-15T01:00:37.954Z,0.60
2018-12-15T01:03:06.264Z,0.60
2018-12-15T01:05:34.724Z,0.60
2018-12-15T01:08:03.228Z,0.60
2018-12-15T01:10:31.583Z,0.60
2018-12-15T01:13:00.003Z,0.60
2018-12-15T01:15:33.825Z,0.60
2018-12-15T01:18:02.178Z,0.60
2018-12-15T01:20:30.636Z,0.60
2018-12-15T01:22:58.944Z,0.60
2018-12-15T01:25:27.208Z,0.60
2018-12-15T01:27:55.596Z,0.60
2018-12-15T01:30:23.960Z,0.60
2018-12-15T01:32:52.257Z,0.60
2018-12-15T01:35:20.568Z,0.50
2018-12-15T01:37:48.891Z,0.50
2018-12-15T01:40:17.299Z,0.60
2018-12-15T01:42:45.775Z,0.60
2018-12-15T01:45:14.278Z,0.50
2018-12-15T01:47:42.564Z,0.60
2018-12-15T01:50:10.914Z,0.60
2018-12-15T01:52:39.221Z,0.60
2018-12-15T01:55:07.703Z,0.60
2018-12-15T01:57:36.005Z,0.60
2018-12-15T02:00:05.636Z,0.60
2018-12-15T02:02:34.216Z,0.50
2018-12-15T02:05:02.701Z,0.60
2018-12-15T02:07:31.127Z,0.50
2018-12-15T02:09:59.437Z,0.50
2018-12-15T02:12:27.744Z,0.50
2018-12-15T02:14:56.092Z,0.60
2018-12-15T02:17:24.481Z,0.60
2018-12-15T02:19:53.380Z,0.60
2018-12-15T02:22:21.771Z,0.60
2018-12-15T02:24:50.192Z,0.60
2018-12-15T02:27:18.496Z,0.60
2018-12-15T02:29:46.874Z,0.60
2018-12-15T02:32:15.290Z,0.50
2018-12-15T02:34:43.710Z,0.60
2018-12-15T02:37:12.001Z,0.60
2018-12-15T02:39:40.281Z,0.50
2018-12-15T02:42:08.589Z,0.60
2018-12-15T02:44:36.995Z,0.50
2018-12-15T02:47:05.346Z,0.60
2018-12-15T02:49:33.639Z,0.60
2018-12-15T02:52:01.991Z,0.60
2018-12-15T02:54:30.402Z,0.60
2018-12-15T02:56:58.732Z,0.60
2018-12-15T02:59:26.994Z,0.60
2018-12-15T03:01:55.351Z,0.60
2018-12-15T03:04:23.793Z,0.60
2018-12-15T03:06:53.082Z,0.60
2018-12-15T03:09:21.524Z,0.70
2018-12-15T03:11:50.597Z,0.70
2018-12-15T03:14:19.064Z,0.70
2018-12-15T03:16:58.827Z,0.70
2018-12-15T03:19:27.175Z,0.70
2018-12-15T03:21:55.495Z,0.70
2018-12-15T03:24:23.769Z,0.70
2018-12-15T03:26:52.711Z,0.70
2018-12-15T03:29:21.117Z,0.80
2018-12-15T03:31:49.733Z,0.80
2018-12-15T03:34:18.409Z,0.80
2018-12-15T03:36:46.773Z,0.80
2018-12-15T03:39:15.210Z,0.90
2018-12-15T03:41:43.502Z,0.90
2018-12-15T03:44:11.895Z,0.90
2018-12-15T03:46:40.216Z,0.90
2018-12-15T03:49:08.512Z,0.90
2018-12-15T03:51:36.812Z,0.90
2018-12-15T03:54:05.134Z,0.90
2018-12-15T03:56:33.428Z,0.90
2018-12-15T03:59:01.730Z,0.90
2018-12-15T04:01:30.143Z,0.90
2018-12-15T04:03:58.444Z,0.90
2018-12-15T04:06:26.769Z,0.90
2018-12-15T04:08:55.172Z,0.90
2018-12-15T04:11:23.505Z,0.90
2018-12-15T04:13:51.830Z,0.90
2018-12-15T04:16:20.120Z,0.90
2018-12-15T04:18:48.397Z,0.90
2018-12-15T04:21:16.695Z,0.90
2018-12-15T04:23:44.990Z,0.90
2018-12-15T04:26:13.322Z,0.90
2018-12-15T04:28:41.665Z,0.90
2018-12-15T04:31:09.949Z,0.90
2018-12-15T04:33:38.235Z,0.90
2018-12-15T04:36:14.391Z,0.90
2018-12-15T04:38:42.808Z,0.90
2018-12-15T04:41:11.102Z,0.90
2018-12-15T04:43:39.534Z,0.90
2018-12-15T04:46:07.817Z,0.90
2018-12-15T04:48:36.097Z,0.90
2018-12-15T04:51:04.374Z,0.80
2018-12-15T04:53:32.681Z,0.80
2018-12-15T04:56:00.946Z,0.80
2018-12-15T04:58:29.371Z,0.80
2018-12-15T05:00:57.743Z,0.80
2018-12-15T05:03:26.277Z,0.80
2018-12-15T05:05:54.707Z,0.80
2018-12-15T05:08:22.978Z,0.80
2018-12-15T05:10:51.280Z,0.80
2018-12-15T05:13:19.568Z,0.80
2018-12-15T05:15:47.894Z,0.80
2018-12-15T05:18:18.347Z,0.80
2018-12-15T05:20:46.571Z,0.80
2018-12-15T05:23:14.901Z,0.80
2018-12-15T05:25:43.186Z,0.80
2018-12-15T05:28:11.501Z,0.80
2018-12-15T05:30:39.801Z,0.80
2018-12-15T05:33:08.069Z,0.80
2018-12-15T05:35:36.402Z,0.80
2018-12-15T05:38:04.855Z,0.80
2018-12-15T05:40:33.151Z,0.80
2018-12-15T05:43:01.502Z,0.80
2018-12-15T05:45:29.947Z,0.80
2018-12-15T05:47:58.231Z,0.80
2018-12-15T05:50:26.492Z,0.80
2018-12-15T05:52:54.769Z,0.80
2018-12-15T05:55:23.113Z,0.80
2018-12-15T05:57:51.370Z,0.80
2018-12-15T06:00:19.666Z,0.80
2018-12-15T06:02:48.026Z,0.80
2018-12-15T06:05:16.556Z,0.80
2018-12-15T06:07:45.095Z,0.70
2018-12-15T06:10:13.394Z,0.70
2018-12-15T06:12:41.666Z,0.80
2018-12-15T06:15:10.068Z,0.80
2018-12-15T06:17:38.341Z,0.80
2018-12-15T06:20:06.852Z,0.80
2018-12-15T06:22:35.234Z,0.80
2018-12-15T06:25:03.733Z,0.80
2018-12-15T06:27:32.363Z,0.80
2018-12-15T06:30:00.630Z,0.80
2018-12-15T06:32:28.925Z,0.80
2018-12-15T06:34:57.214Z,0.80
2018-12-15T06:37:25.604Z,0.80
2018-12-15T06:39:53.952Z,0.80
2018-12-15T06:42:22.291Z,0.80
2018-12-15T06:44:50.553Z,0.80
2018-12-15T06:47:19.017Z,0.80
2018-12-15T06:49:47.280Z,0.80
2018-12-15T06:52:15.685Z,0.80
2018-12-15T06:54:44.910Z,0.80
2018-12-15T06:57:13.209Z,0.80
2018-12-15T06:59:41.641Z,0.80
2018-12-15T07:02:10.074Z,0.80
2018-12-15T07:04:38.487Z,0.80
2018-12-15T07:07:15.438Z,0.80
2018-12-15T07:09:44.103Z,0.80
2018-12-15T07:12:12.448Z,0.80
2018-12-15T07:14:40.862Z,0.80
2018-12-15T07:17:09.151Z,0.80
2018-12-15T07:19:38.114Z,0.80
2018-12-15T07:22:06.427Z,0.90
2018-12-15T07:24:34.781Z,0.80
2018-12-15T07:27:03.429Z,0.80
2018-12-15T07:29:31.736Z,0.80
2018-12-15T07:31:59.993Z,0.80
2018-12-15T07:34:28.275Z,0.90
2018-12-15T07:36:56.537Z,0.80
2018-12-15T07:39:24.802Z,0.80
2018-12-15T07:41:53.081Z,0.80
2018-12-15T07:44:21.350Z,0.80
2018-12-15T07:46:49.606Z,0.80
2018-12-15T07:49:17.848Z,0.80
2018-12-15T07:51:46.109Z,0.80
2018-12-15T07:54:14.587Z,0.80
2018-12-15T07:56:42.951Z,0.80
2018-12-15T07:59:11.211Z,0.80
2018-12-15T08:01:39.534Z,0.80
2018-12-15T08:04:08.106Z,0.80
2018-12-15T08:06:36.369Z,0.80
2018-12-15T08:09:06.901Z,0.80
2018-12-15T08:11:40.509Z,0.90
2018-12-15T08:14:10.140Z,0.90
2018-12-15T08:16:38.436Z,0.90
2018-12-15T08:19:06.846Z,0.90
2018-12-15T08:21:35.155Z,0.90
2018-12-15T08:24:03.437Z,0.90
2018-12-15T08:26:31.737Z,0.90
2018-12-15T08:28:59.968Z,0.90
2018-12-15T08:31:28.310Z,0.90
2018-12-15T08:33:56.605Z,0.90
2018-12-15T08:36:24.926Z,0.90
2018-12-15T08:38:53.266Z,0.90
2018-12-15T08:41:21.532Z,0.90
2018-12-15T08:43:49.825Z,0.90
2018-12-15T08:46:18.470Z,0.90
2018-12-15T08:48:46.929Z,1.00
2018-12-15T08:51:15.473Z,0.90
2018-12-15T08:53:44.007Z,1.00
2018-12-15T08:56:12.430Z,1.00
2018-12-15T08:58:40.735Z,1.00
2018-12-15T09:01:09.120Z,1.00
2018-12-15T09:03:37.650Z,1.00
2018-12-15T09:06:05.957Z,1.00
2018-12-15T09:08:34.245Z,1.00
2018-12-15T09:11:02.559Z,1.00
2018-12-15T09:13:30.844Z,1.00
2018-12-15T09:15:59.131Z,1.10
2018-12-15T09:18:27.406Z,1.10
2018-12-15T09:20:55.804Z,1.10
2018-12-15T09:23:24.114Z,1.10
2018-12-15T09:25:52.444Z,1.10
2018-12-15T09:28:20.926Z,1.10
2018-12-15T09:30:49.188Z,1.10
2018-12-15T09:33:17.522Z,1.10
2018-12-15T09:35:45.895Z,1.10
2018-12-15T09:38:14.380Z,1.20
2018-12-15T09:40:42.733Z,1.20
2018-12-15T09:43:11.039Z,1.20
2018-12-15T09:45:39.336Z,1.20
2018-12-15T09:48:07.615Z,1.20
2018-12-15T09:50:36.133Z,1.20
2018-12-15T09:53:04.632Z,1.20
2018-12-15T09:55:32.960Z,1.20
2018-12-15T09:58:01.262Z,1.20
2018-12-15T10:00:29.586Z,1.20
2018-12-15T10:02:57.889Z,1.20
2018-12-15T10:05:27.510Z,1.30
2018-12-15T10:07:55.774Z,1.30
2018-12-15T10:10:24.112Z,1.30
2018-12-15T10:12:52.440Z,1.30
2018-12-15T10:15:21.237Z,1.30
2018-12-15T10:17:49.695Z,1.30
2018-12-15T10:20:18.003Z,1.30
2018-12-15T10:22:46.340Z,1.30
2018-12-15T10:25:14.654Z,1.30
2018-12-15T10:27:42.966Z,1.30
2018-12-15T10:30:16.691Z,1.30
2018-12-15T10:32:50.204Z,1.30
2018-12-15T10:35:18.664Z,1.40
2018-12-15T10:37:47.248Z,1.40
2018-12-15T10:40:15.722Z,1.40
2018-12-15T10:42:44.203Z,1.40
2018-12-15T10:45:12.500Z,1.40
2018-12-15T10:47:40.784Z,1.40
2018-12-15T10:50:10.362Z,1.30
2018-12-15T10:52:38.648Z,1.30
2018-12-15T10:55:08.897Z,1.30
2018-12-15T10:57:37.367Z,1.40
2018-12-15T11:00:13.416Z,1.30
2018-12-15T11:02:41.892Z,1.30
2018-12-15T11:05:10.686Z,1.30
2018-12-15T11:07:39.134Z,1.30
2018-12-15T11:10:07.607Z,1.30
2018-12-15T11:12:36.044Z,1.30
2018-12-15T11:15:04.894Z,1.30
2018-12-15T11:17:33.337Z,1.30
2018-12-15T11:20:01.715Z,1.40
2018-12-15T11:22:30.094Z,1.40
2018-12-15T11:24:58.571Z,1.40
2018-12-15T11:27:26.899Z,1.40
2018-12-15T11:29:55.273Z,1.40
2018-12-15T11:32:23.647Z,1.50
2018-12-15T11:34:51.966Z,1.40
2018-12-15T11:37:20.196Z,1.50
2018-12-15T11:39:55.238Z,1.50
2018-12-15T11:42:23.726Z,1.50
2018-12-15T11:44:55.285Z,1.50
2018-12-15T11:47:23.687Z,1.50
2018-12-15T11:49:51.997Z,1.50
2018-12-15T11:52:20.340Z,1.50
2018-12-15T11:54:48.608Z,1.50
2018-12-15T11:57:16.991Z,1.50
2018-12-15T11:59:46.487Z,1.40
2018-12-15T12:02:14.918Z,1.40
2018-12-15T12:04:43.186Z,1.50
2018-12-15T12:07:11.571Z,1.50
2018-12-15T12:09:39.908Z,1.50
2018-12-15T12:12:08.377Z,1.50
2018-12-15T12:14:37.571Z,1.50
2018-12-15T12:17:05.928Z,1.50
2018-12-15T12:19:34.352Z,1.50
2018-12-15T12:22:02.784Z,1.50
2018-12-15T12:24:31.115Z,1.60
2018-12-15T12:26:59.388Z,1.60
2018-12-15T12:29:27.698Z,1.60
2018-12-15T12:31:56.238Z,1.60
2018-12-15T12:34:24.563Z,1.60
2018-12-15T12:36:53.137Z,1.60
2018-12-15T12:39:21.411Z,1.60
2018-12-15T12:41:49.730Z,1.60
2018-12-15T12:44:18.053Z,1.60
2018-12-15T12:46:46.461Z,1.60
2018-12-15T12:49:14.763Z,1.60
2018-12-15T12:51:43.059Z,1.60
2018-12-15T12:54:11.455Z,1.60
2018-12-15T12:56:39.895Z,1.50
2018-12-15T12:59:08.798Z,1.60
2018-12-15T13:01:37.065Z,1.60
2018-12-15T13:04:05.575Z,1.60
2018-12-15T13:06:33.998Z,1.60
2018-12-15T13:09:02.565Z,1.60
2018-12-15T13:11:30.888Z,1.70
2018-12-15T13:13:59.314Z,1.70
2018-12-15T13:16:27.627Z,1.70
2018-12-15T13:18:56.044Z,1.70
2018-12-15T13:21:24.781Z,1.70
2018-12-15T13:23:53.200Z,1.60
2018-12-15T13:26:21.657Z,1.60
2018-12-15T13:28:50.228Z,1.60
2018-12-15T13:31:18.675Z,1.50
2018-12-15T13:33:47.182Z,1.50
2018-12-15T13:36:17.755Z,1.50
2018-12-15T13:38:46.097Z,1.50
2018-12-15T13:41:14.427Z,1.40
2018-12-15T13:43:42.727Z,1.40
2018-12-15T13:46:11.248Z,1.40
2018-12-15T13:48:39.524Z,1.40
2018-12-15T13:51:07.929Z,1.40
2018-12-15T13:53:36.368Z,1.40
2018-12-15T13:56:04.752Z,1.40
2018-12-15T13:58:33.069Z,1.40
2018-12-15T14:01:01.375Z,1.30
2018-12-15T14:03:29.655Z,1.30
2018-12-15T14:05:58.058Z,1.30
2018-12-15T14:08:26.316Z,1.30
2018-12-15T14:10:54.722Z,1.30
2018-12-15T14:13:23.022Z,1.30
2018-12-15T14:15:51.329Z,1.30
2018-12-15T14:18:20.600Z,1.20
2018-12-15T14:20:48.892Z,1.20
2018-12-15T14:23:17.259Z,1.20
2018-12-15T14:25:45.646Z,1.20
2018-12-15T14:28:14.073Z,1.20
2018-12-15T14:30:42.627Z,1.10
2018-12-15T14:33:10.995Z,1.10
2018-12-15T14:35:39.327Z,1.10
2018-12-15T14:38:07.913Z,1.00
2018-12-15T14:40:36.416Z,1.00
2018-12-15T14:43:04.945Z,1.00
2018-12-15T14:45:33.243Z,0.90
2018-12-15T14:48:01.880Z,0.90
2018-12-15T14:50:30.372Z,0.90
2018-12-15T14:52:58.905Z,0.90
2018-12-15T14:55:27.400Z,0.80
2018-12-15T14:57:55.874Z,0.80
2018-12-15T15:00:24.351Z,0.80
2018-12-15T15:02:52.859Z,0.70
2018-12-15T15:05:21.153Z,0.70
2018-12-15T15:07:49.465Z,0.70
2018-12-15T15:10:17.851Z,0.60
2018-12-15T15:12:48.170Z,0.60
2018-12-15T15:15:16.866Z,0.60
2018-12-15T15:17:45.178Z,0.60
2018-12-15T15:20:13.624Z,0.50
2018-12-15T15:22:41.990Z,0.50
2018-12-15T15:25:10.710Z,0.40
2018-12-15T15:27:38.992Z,0.40
2018-12-15T15:30:09.094Z,0.40
2018-12-15T15:32:37.495Z,0.40
2018-12-15T15:35:07.415Z,0.30
2018-12-15T15:37:35.874Z,0.30
2018-12-15T15:40:04.844Z,0.30
2018-12-15T15:42:33.085Z,0.20
2018-12-15T15:45:01.864Z,0.30
2018-12-15T15:47:30.447Z,0.20
2018-12-15T15:49:58.848Z,0.20
2018-12-15T15:52:27.252Z,0.10
2018-12-15T15:54:55.670Z,0.10
2018-12-15T15:57:24.868Z,0.00
2018-12-15T15:59:53.185Z,0.00
2018-12-15T16:02:21.634Z,0.00
2018-12-15T16:04:56.636Z,0.00
2018-12-15T16:07:26.155Z,-0.10
2018-12-15T16:09:56.443Z,-0.10
2018-12-15T16:12:24.831Z,-0.20
2018-12-15T16:14:53.258Z,-0.30
2018-12-15T16:17:21.640Z,-0.30
2018-12-15T16:19:49.989Z,-0.40
2018-12-15T16:22:18.516Z,-0.50
2018-12-15T16:24:46.764Z,-0.50
2018-12-15T16:27:15.072Z,-0.50
2018-12-15T16:29:43.446Z,-0.50
2018-12-15T16:32:11.839Z,-0.50
2018-12-15T16:34:40.105Z,-0.50
2018-12-15T16:37:08.585Z,-0.40
2018-12-15T16:39:36.856Z,-0.40
2018-12-15T16:42:05.418Z,-0.30
2018-12-15T16:44:33.728Z,-0.40
2018-12-15T16:47:02.191Z,-0.40
2018-12-15T16:49:30.468Z,-0.40
2018-12-15T16:51:58.737Z,-0.40
2018-12-15T16:54:27.047Z,-0.50
2018-12-15T16:56:55.382Z,-0.50
2018-12-15T16:59:23.789Z,-0.50
2018-12-15T17:01:52.303Z,-0.50
2018-12-15T17:04:20.689Z,-0.60
2018-12-15T17:06:49.012Z,-0.60
2018-12-15T17:09:17.401Z,-0.60
2018-12-15T17:11:45.998Z,-0.60
2018-12-15T17:14:14.370Z,-0.60
2018-12-15T17:16:43.668Z,-0.70
2018-12-15T17:19:11.971Z,-0.80
2018-12-15T17:21:40.267Z,-0.90
2018-12-15T17:24:08.559Z,-0.80
2018-12-15T17:26:36.876Z,-0.80
2018-12-15T17:29:05.353Z,-0.80
2018-12-15T17:31:33.674Z,-0.80
2018-12-15T17:34:01.959Z,-0.80
2018-12-15T17:36:30.565Z,-0.90
2018-12-15T17:38:59.221Z,-0.90
2018-12-15T17:41:27.545Z,-0.90
2018-12-15T17:43:56.167Z,-0.90
2018-12-15T17:46:26.036Z,-1.00
2018-12-15T17:48:54.347Z,-0.90
2018-12-15T17:51:23.029Z,-0.90
2018-12-15T17:53:51.322Z,-0.90
2018-12-15T17:56:19.607Z,-0.90
2018-12-15T17:58:49.232Z,-0.90
2018-12-15T18:01:17.790Z,-0.90
2018-12-15T18:03:46.137Z,-0.90
2018-12-15T18:06:14.435Z,-0.90
2018-12-15T18:08:42.731Z,-0.90
2018-12-15T18:11:11.040Z,-0.90
2018-12-15T18:13:39.440Z,-0.90
2018-12-15T18:16:08.202Z,-0.80
2018-12-15T18:18:37.160Z,-0.80
2018-12-15T18:21:09.734Z,-0.80
2018-12-15T18:23:37.511Z,-0.80
2018-12-15T18:26:06.098Z,-0.90
2018-12-15T18:28:34.607Z,-0.90
2018-12-15T18:31:02.993Z,-0.90
2018-12-15T18:33:36.980Z,-0.90
2018-12-15T18:36:02.063Z,-0.90
2018-12-15T18:38:30.381Z,-1.00
2018-12-15T18:40:58.699Z,-1.00
2018-12-15T18:43:27.021Z,-1.00
2018-12-15T18:45:55.395Z,-1.00
2018-12-15T18:48:23.719Z,-1.00
2018-12-15T18:50:52.167Z,-1.00
2018-12-15T18:53:21.276Z,-1.00
2018-12-15T18:55:49.869Z,-1.00
2018-12-15T18:58:18.480Z,-1.00
2018-12-15T19:00:47.040Z,-1.00
2018-12-15T19:03:15.957Z,-1.00
2018-12-15T19:05:44.460Z,-1.00
2018-12-15T19:08:12.781Z,-1.00
2018-12-15T19:10:41.140Z,-1.00
2018-12-15T19:13:10.208Z,-1.00
2018-12-15T19:15:38.593Z,-1.10
2018-12-15T19:18:07.892Z,-1.10
2018-12-15T19:20:36.316Z,-1.10
2018-12-15T19:23:04.694Z,-1.10
2018-12-15T19:25:33.072Z,-1.10
2018-12-15T19:28:01.700Z,-1.10
2018-12-15T19:30:30.068Z,-1.10
2018-12-15T19:32:58.951Z,-1.10
2018-12-15T19:35:27.350Z,-1.10
2018-12-15T19:37:55.753Z,-1.10
2018-12-15T19:40:24.106Z,-1.20
2018-12-15T19:42:52.879Z,-1.20
2018-12-15T19:45:21.185Z,-1.20
2018-12-15T19:47:49.591Z,-1.20
2018-12-15T19:50:17.899Z,-1.30
2018-12-15T19:52:46.220Z,-1.30
2018-12-15T19:55:14.728Z,-1.30
2018-12-15T19:57:43.049Z,-1.30
2018-12-15T20:00:11.439Z,-1.20
2018-12-15T20:02:39.904Z,-1.20
2018-12-15T20:05:08.514Z,-1.30
2018-12-15T20:07:37.134Z,-1.40
2018-12-15T20:10:06.539Z,-1.30
2018-12-15T20:12:34.961Z,-1.30
2018-12-15T20:15:03.953Z,-1.30
2018-12-15T20:17:32.615Z,-1.30
2018-12-15T20:20:00.992Z,-1.30
2018-12-15T20:22:29.330Z,-1.30
2018-12-15T20:24:57.658Z,-1.30
2018-12-15T20:27:26.165Z,-1.30
2018-12-15T20:29:54.479Z,-1.30
2018-12-15T20:32:22.821Z,-1.20
2018-12-15T20:34:51.165Z,-1.20
2018-12-15T20:37:19.435Z,-1.30
2018-12-15T20:39:47.727Z,-1.30
2018-12-15T20:42:16.073Z,-1.20
2018-12-15T20:44:44.514Z,-1.20
2018-12-15T20:47:13.045Z,-1.20
2018-12-15T20:49:41.356Z,-1.20
2018-12-15T20:52:09.744Z,-1.20
2018-12-15T20:54:38.055Z,-1.20
2018-12-15T20:57:08.085Z,-1.20
2018-12-15T20:59:36.480Z,-1.20
2018-12-15T21:02:04.835Z,-1.30
2018-12-15T21:04:33.136Z,-1.30
2018-12-15T21:07:01.407Z,-1.30
2018-12-15T21:09:29.743Z,-1.20
2018-12-15T21:11:58.127Z,-1.20
2018-12-15T21:14:26.408Z,-1.20
2018-12-15T21:16:54.709Z,-1.20
2018-12-15T21:19:23.004Z,-1.20
2018-12-15T21:21:51.702Z,-1.20
2018-12-15T21:24:20.183Z,-1.30
2018-12-15T21:26:48.542Z,-1.40
2018-12-15T21:29:16.818Z,-1.40
2018-12-15T21:31:46.801Z,-1.40
2018-12-15T21:34:15.503Z,-1.40
2018-12-15T21:43:48.436Z,-1.40
2018-12-15T21:46:16.883Z,-1.50
2018-12-15T21:48:45.228Z,-1.50
2018-12-15T21:51:13.557Z,-1.50
2018-12-15T21:53:41.851Z,-1.50
2018-12-15T21:56:10.280Z,-1.40
2018-12-15T21:58:38.649Z,-1.40
2018-12-15T22:01:06.926Z,-1.40
2018-12-15T22:03:35.393Z,-1.40
2018-12-15T22:06:03.715Z,-1.40
2018-12-15T22:08:32.038Z,-1.40
2018-12-15T22:11:00.473Z,-1.50
2018-12-15T22:13:29.251Z,-1.50
2018-12-15T22:15:57.635Z,-1.50
2018-12-15T22:18:26.511Z,-1.40
2018-12-15T22:20:55.089Z,-1.50
2018-12-15T22:23:23.475Z,-1.40
2018-12-15T22:25:51.780Z,-1.40
2018-12-15T22:28:20.235Z,-1.40
2018-12-15T22:30:48.703Z,-1.30
2018-12-15T22:33:17.028Z,-1.30
2018-12-15T22:35:45.411Z,-1.30
2018-12-15T22:38:13.714Z,-1.40
2018-12-15T22:40:42.071Z,-1.40
2018-12-15T22:43:10.365Z,-1.40
2018-12-15T22:45:38.784Z,-1.40
2018-12-15T22:48:07.196Z,-1.30
2018-12-15T22:50:37.123Z,-1.40
2018-12-15T22:53:05.681Z,-1.40
2018-12-15T22:55:34.011Z,-1.40
2018-12-15T22:58:02.341Z,-1.40
2018-12-15T23:00:35.096Z,-1.40
2018-12-15T23:03:03.498Z,-1.40
2018-12-15T23:05:31.799Z,-1.30
2018-12-15T23:08:00.051Z,-1.30
2018-12-15T23:10:28.372Z,-1.30
2018-12-15T23:12:56.802Z,-1.30
2018-12-15T23:15:25.481Z,-1.30
2018-12-15T23:17:53.894Z,-1.30
2018-12-15T23:20:22.417Z,-1.30
2018-12-15T23:23:12.152Z,-1.30
2018-12-15T23:25:40.583Z,-1.30
2018-12-15T23:28:08.864Z,-1.40
2018-12-15T23:30:37.180Z,-1.40
2018-12-15T23:33:05.534Z,-1.40
2018-12-15T23:35:33.804Z,-1.40
2018-12-15T23:38:02.101Z,-1.40
2018-12-15T23:40:30.497Z,-1.30
2018-12-15T23:42:58.838Z,-1.30
2018-12-15T23:45:27.178Z,-1.30
2018-12-15T23:47:55.468Z,-1.40
2018-12-15T23:50:23.728Z,-1.40
2018-12-15T23:52:52.065Z,-1.40
2018-12-15T23:55:20.957Z,-1.40
2018-12-15T23:57:49.530Z,-1.40
